Time;durP1;ratioP1;P1;durP2;ratioP2;P2;SDS_P1;SDS_P2;PMS_P1;PMS_P2;Temp;Humidity;BMP_temperature;BMP_pressure;BME280_temperature;BME280_humidity;BME280_pressure;Samples;Min_cycle;Max_cycle;Signal;HPM_P1;HPM_P2
2023/05/09 00:01:44;;;;;;;16.70;6.73;;;;;;;6.71;64.88;101522.09;4221696;28;20228;-64
2023/05/09 00:04:10;;;;;;;19.17;6.87;;;;;;;6.73;64.86;101525.53;4202043;28;20232;-65
2023/05/09 00:06:37;;;;;;;14.37;6.30;;;;;;;6.65;65.18;101522.44;4217964;28;20244;-62
2023/05/09 00:09:04;;;;;;;12.63;6.33;;;;;;;6.55;66.15;101514.09;4203364;28;20308;-62
2023/05/09 00:11:30;;;;;;;16.47;6.73;;;;;;;6.69;65.52;101518.63;4218920;28;21755;-62
2023/05/09 00:13:57;;;;;;;14.03;6.40;;;;;;;6.63;66.02;101513.63;4216735;28;20241;-64
2023/05/09 00:16:25;;;;;;;18.97;6.40;;;;;;;6.61;65.89;101515.53;4201201;28;20418;-64
2023/05/09 00:18:51;;;;;;;14.07;6.37;;;;;;;6.45;67.44;101516.47;4215527;28;21130;-63
2023/05/09 00:21:18;;;;;;;14.07;6.53;;;;;;;6.49;67.15;101517.16;4216485;28;20240;-65
2023/05/09 00:23:45;;;;;;;15.27;6.53;;;;;;;6.46;67.07;101510.13;4211429;28;20241;-66
2023/05/09 00:26:12;;;;;;;13.47;5.83;;;;;;;6.47;67.48;101505.63;4215783;28;22048;-64
2023/05/09 00:28:38;;;;;;;20.77;6.53;;;;;;;6.49;67.28;101501.00;4223351;28;21476;-62
2023/05/09 00:31:05;;;;;;;18.13;7.27;;;;;;;6.47;67.33;101501.13;4230025;28;20255;-62
2023/05/09 00:33:32;;;;;;;20.57;6.90;;;;;;;6.36;66.99;101475.84;4207306;28;21347;-63
2023/05/09 00:35:58;;;;;;;15.53;6.97;;;;;;;6.38;67.95;101500.81;4208791;28;20236;-65
2023/05/09 00:38:25;;;;;;;16.13;6.50;;;;;;;6.25;68.19;101500.69;4218025;28;20308;-66
2023/05/09 00:40:51;;;;;;;17.07;6.40;;;;;;;6.18;68.83;101501.06;4216003;28;20232;-63
2023/05/09 00:43:18;;;;;;;14.93;6.47;;;;;;;6.13;69.27;101510.38;4209339;28;20262;-62
2023/05/09 00:45:44;;;;;;;13.57;6.17;;;;;;;6.00;69.22;101492.25;4215772;28;20327;-64
2023/05/09 00:48:11;;;;;;;20.70;6.20;;;;;;;6.03;69.26;101502.84;4217430;28;20889;-63
2023/05/09 00:50:38;;;;;;;14.47;6.20;;;;;;;5.98;69.81;101501.34;4207664;28;20312;-66
2023/05/09 00:53:04;;;;;;;19.90;7.23;;;;;;;5.91;70.33;101500.88;4212488;28;20224;-63
2023/05/09 00:55:31;;;;;;;15.30;7.63;;;;;;;6.01;69.99;101501.22;4217700;28;20235;-65
2023/05/09 00:57:57;;;;;;;15.13;7.30;;;;;;;6.06;69.58;101500.94;4211340;28;20454;-63
2023/05/09 01:00:24;;;;;;;18.57;7.73;;;;;;;6.12;69.15;101504.09;4206445;28;20323;-65
2023/05/09 01:02:53;;;;;;;17.27;7.20;;;;;;;6.11;69.01;101504.22;4206619;28;20255;-68
2023/05/09 01:05:21;;;;;;;10.27;5.43;;;;;;;6.01;69.41;101499.38;4214338;28;20247;-64
2023/05/09 01:08:09;;;;;;;11.63;5.87;;;;;;;5.92;69.77;101496.34;4206965;28;20620;-62
2023/05/09 01:10:43;;;;;;;10.67;5.30;;;;;;;5.79;70.81;101506.94;4206312;28;23055;-64
2023/05/09 01:13:22;;;;;;;15.07;5.50;;;;;;;5.69;71.32;101496.75;4211967;28;20228;-64
2023/05/09 01:15:57;;;;;;;14.93;6.90;;;;;;;5.58;71.85;101493.81;4208519;28;21133;-66
2023/05/09 01:18:35;;;;;;;12.77;5.87;;;;;;;5.54;72.09;101497.66;4202503;28;20302;-65
2023/05/09 01:21:07;;;;;;;11.80;5.30;;;;;;;5.50;72.49;101499.66;4209688;28;21008;-62
2023/05/09 01:23:46;;;;;;;13.50;5.93;;;;;;;5.42;72.93;101492.97;4194996;28;20251;-64
2023/05/09 01:26:30;;;;;;;12.40;5.37;;;;;;;5.36;73.15;101494.22;4201305;28;20280;-65
2023/05/09 01:29:16;;;;;;;11.67;5.30;;;;;;;5.28;73.73;101494.63;4219040;28;25815;-62
2023/05/09 01:31:44;;;;;;;12.63;5.83;;;;;;;5.30;73.77;101499.91;4228880;28;21242;-62
2023/05/09 01:34:11;;;;;;;16.07;7.60;;;;;;;5.24;74.30;101493.94;4215132;28;20231;-64
2023/05/09 01:36:41;;;;;;;19.97;8.00;;;;;;;5.32;73.74;101489.94;4214876;28;20240;-64
2023/05/09 01:39:11;;;;;;;16.73;7.37;;;;;;;5.30;73.84;101499.91;4222288;28;20242;-61
2023/05/09 01:41:38;;;;;;;12.80;6.80;;;;;;;5.19;73.94;101487.97;4201671;28;23023;-64
2023/05/09 01:44:07;;;;;;;14.13;6.20;;;;;;;5.19;73.88;101496.03;4201820;28;21366;-61
2023/05/09 01:46:35;;;;;;;13.63;6.00;;;;;;;5.22;73.78;101494.97;4219759;28;20253;-62
2023/05/09 01:49:02;;;;;;;16.00;5.90;;;;;;;5.14;74.38;101497.22;4214590;28;20228;-66
2023/05/09 01:51:30;;;;;;;14.73;6.70;;;;;;;5.07;75.05;101497.56;4200428;28;20522;-65
2023/05/09 01:53:58;;;;;;;15.23;7.07;;;;;;;5.01;74.90;101497.91;4193437;28;20331;-62
2023/05/09 01:56:25;;;;;;;16.73;6.83;;;;;;;5.00;75.32;101488.13;4208463;28;20236;-64
2023/05/09 01:58:52;;;;;;;20.47;7.60;;;;;;;5.10;74.68;101490.31;4208239;28;20235;-65
2023/05/09 02:01:19;;;;;;;20.77;7.80;;;;;;;5.02;74.68;101485.34;4192834;28;20293;-62
2023/05/09 02:03:49;;;;;;;21.47;8.07;;;;;;;5.04;74.67;101492.38;4205130;28;24036;-63
2023/05/09 02:06:16;;;;;;;18.20;8.10;;;;;;;5.07;74.25;101488.63;4206289;28;20247;-64
2023/05/09 02:08:43;;;;;;;18.80;7.90;;;;;;;5.16;73.94;101484.59;4217806;28;20455;-62
2023/05/09 02:11:09;;;;;;;17.73;7.93;;;;;;;5.25;73.50;101484.06;4207495;28;20308;-64
2023/05/09 02:13:37;;;;;;;18.73;8.40;;;;;;;5.18;73.40;101491.59;4205230;28;20239;-64
2023/05/09 02:16:06;;;;;;;19.70;7.77;;;;;;;5.10;73.70;101483.13;4215160;28;20232;-64
2023/05/09 02:18:34;;;;;;;20.17;7.77;;;;;;;5.00;74.53;101484.56;4207393;28;20844;-63
2023/05/09 02:21:01;;;;;;;19.90;7.93;;;;;;;4.90;75.02;101485.09;4210451;28;20415;-62
2023/05/09 02:23:28;;;;;;;18.00;7.67;;;;;;;4.95;74.56;101484.81;4211709;28;20236;-62
2023/05/09 02:25:54;;;;;;;20.90;8.43;;;;;;;5.01;74.34;101484.50;4210075;28;20817;-63
2023/05/09 02:28:22;;;;;;;14.43;7.20;;;;;;;4.96;74.19;101483.03;4210016;28;23558;-63
2023/05/09 02:30:49;;;;;;;14.70;6.90;;;;;;;4.85;74.64;101491.66;4211303;28;20299;-64
2023/05/09 02:33:16;;;;;;;16.43;7.80;;;;;;;4.89;74.55;101493.22;4214082;28;20240;-62
2023/05/09 02:35:45;;;;;;;15.67;6.43;;;;;;;4.88;74.59;101484.31;4222172;28;21777;-65
2023/05/09 02:38:14;;;;;;;17.63;7.40;;;;;;;4.76;75.08;101480.47;4207364;28;20235;-62
2023/05/09 02:40:42;;;;;;;16.00;7.60;;;;;;;4.66;75.70;101481.06;4203103;28;20237;-64
2023/05/09 02:43:09;;;;;;;21.33;8.27;;;;;;;4.66;75.53;101492.66;4210020;28;20319;-61
2023/05/09 02:45:36;;;;;;;20.20;8.30;;;;;;;4.69;75.59;101495.19;4203007;28;20374;-63
2023/05/09 02:48:02;;;;;;;16.70;8.20;;;;;;;4.56;75.66;101484.25;4220681;28;20467;-63
2023/05/09 02:50:32;;;;;;;18.00;7.60;;;;;;;4.58;76.19;101492.19;4222913;28;21121;-62
2023/05/09 02:52:58;;;;;;;18.17;7.13;;;;;;;4.59;76.04;101491.25;4209578;28;20418;-66
2023/05/09 02:55:25;;;;;;;17.80;8.73;;;;;;;4.78;74.30;101480.41;4214474;28;20232;-62
2023/05/09 02:57:52;;;;;;;17.83;8.37;;;;;;;4.79;73.42;101479.44;4213445;28;20236;-64
2023/05/09 03:00:37;;;;;;;13.27;6.60;;;;;;;4.66;74.25;101492.66;4220403;28;20374;-63
2023/05/09 03:03:04;;;;;;;15.00;7.30;;;;;;;4.50;75.54;101486.38;4209046;28;20244;-63
2023/05/09 03:05:31;;;;;;;14.27;6.00;;;;;;;4.47;75.28;101486.56;4197672;28;20403;-65
2023/05/09 03:07:57;;;;;;;12.83;6.67;;;;;;;4.47;75.57;101490.09;4242338;28;20248;-63
2023/05/09 03:10:24;;;;;;;15.77;6.80;;;;;;;4.52;75.30;101489.84;4227517;28;21110;-66
2023/05/09 03:12:50;;;;;;;16.77;6.80;;;;;;;4.56;75.62;101496.81;4209038;28;20424;-66
2023/05/09 03:15:17;;;;;;;13.67;6.80;;;;;;;4.50;75.90;101491.75;4214733;28;20237;-64
2023/05/09 03:17:43;;;;;;;17.07;7.63;;;;;;;4.34;76.86;101492.59;4214490;28;20464;-64
2023/05/09 03:20:10;;;;;;;19.03;8.00;;;;;;;4.30;75.67;101490.16;4199861;28;20295;-61
2023/05/09 03:22:37;;;;;;;17.97;7.13;;;;;;;4.49;75.98;101487.34;4216963;28;20240;-64
2023/05/09 03:25:04;;;;;;;16.07;6.80;;;;;;;4.45;76.04;101497.38;4197611;28;20414;-63
2023/05/09 03:27:30;;;;;;;17.90;7.20;;;;;;;4.38;76.43;101493.28;4198942;28;20249;-65
2023/05/09 03:29:56;;;;;;;15.37;7.47;;;;;;;4.57;74.87;101488.66;4212314;28;21249;-62
2023/05/09 03:32:23;;;;;;;18.57;7.57;;;;;;;4.59;75.59;101491.25;4208504;28;20233;-64
2023/05/09 03:34:50;;;;;;;14.10;7.30;;;;;;;4.64;74.08;101488.31;4208508;28;20238;-63
2023/05/09 03:37:16;;;;;;;16.63;6.67;;;;;;;4.82;73.61;101490.03;4212878;28;23489;-65
2023/05/09 03:39:43;;;;;;;17.83;7.50;;;;;;;4.84;72.15;101489.94;4217516;28;20807;-62
2023/05/09 03:42:09;;;;;;;13.13;6.77;;;;;;;4.94;72.64;101496.53;4222531;28;23635;-62
2023/05/09 03:44:36;;;;;;;22.37;7.70;;;;;;;4.92;73.18;101501.09;4217067;28;20342;-64
2023/05/09 03:47:02;;;;;;;17.43;8.20;;;;;;;4.96;72.96;101501.81;4212928;28;20372;-60
2023/05/09 03:49:29;;;;;;;13.40;6.80;;;;;;;5.07;72.83;101494.00;4200222;28;22043;-61
2023/05/09 03:51:56;;;;;;;14.83;7.03;;;;;;;5.18;72.75;101498.78;4227452;28;20232;-65
2023/05/09 03:54:22;;;;;;;17.13;7.20;;;;;;;5.26;70.23;101495.66;4213910;28;20237;-62
2023/05/09 03:56:49;;;;;;;15.93;7.30;;;;;;;5.58;68.37;101499.19;4208000;28;23797;-65
2023/05/09 03:59:15;;;;;;;20.13;7.20;;;;;;;5.83;66.31;101492.41;4212150;28;20243;-63
2023/05/09 04:01:42;;;;;;;15.27;6.40;;;;;;;6.01;66.81;101494.00;4223143;28;20228;-64
2023/05/09 04:04:08;;;;;;;18.67;7.43;;;;;;;6.12;66.32;101496.03;4190514;28;20240;-65
2023/05/09 04:06:35;;;;;;;17.63;7.63;;;;;;;6.16;66.59;101499.41;4190135;28;20236;-66
2023/05/09 04:09:01;;;;;;;14.43;7.17;;;;;;;6.26;66.26;101484.47;4212691;28;21396;-65
2023/05/09 04:11:28;;;;;;;21.10;8.50;;;;;;;6.27;67.88;101488.03;4205238;28;20451;-65
2023/05/09 04:13:54;;;;;;;16.20;6.90;;;;;;;6.39;66.79;101491.78;4218782;28;20236;-65
2023/05/09 04:16:21;;;;;;;14.90;7.40;;;;;;;6.55;65.53;101491.72;4207773;28;20255;-63
2023/05/09 04:18:47;;;;;;;15.83;7.20;;;;;;;6.64;64.83;101485.75;4212950;28;20241;-64
2023/05/09 04:21:14;;;;;;;17.47;7.53;;;;;;;6.80;62.76;101481.13;4230173;28;20415;-65
2023/05/09 04:23:42;;;;;;;17.73;6.90;;;;;;;6.96;62.27;101486.41;4211358;28;20454;-68
2023/05/09 04:26:11;;;;;;;12.57;6.63;;;;;;;7.04;63.68;101495.81;4224529;28;20232;-66
2023/05/09 04:28:37;;;;;;;25.90;8.17;;;;;;;7.29;62.05;101506.72;4221915;28;20405;-63
2023/05/09 04:31:05;;;;;;;19.57;7.40;;;;;;;7.29;61.18;101493.25;4205479;28;20237;-64
2023/05/09 04:33:32;;;;;;;15.33;6.03;;;;;;;7.49;59.83;101493.78;4200069;28;20241;-65
2023/05/09 04:35:58;;;;;;;26.47;9.37;;;;;;;7.63;59.65;101498.25;4209572;28;20542;-66
2023/05/09 04:38:25;;;;;;;24.57;7.23;;;;;;;7.70;58.96;101498.72;4206722;28;22033;-66
2023/05/09 04:40:51;;;;;;;22.30;7.87;;;;;;;7.84;56.14;101495.94;4213479;28;20247;-65
2023/05/09 04:43:18;;;;;;;15.73;6.43;;;;;;;7.86;56.08;101496.72;4213853;28;20455;-65
2023/05/09 04:45:45;;;;;;;19.90;6.97;;;;;;;7.90;56.31;101497.38;4208715;28;20248;-66
2023/05/09 04:48:11;;;;;;;14.97;7.43;;;;;;;8.15;55.73;101507.34;4224565;28;20443;-63
2023/05/09 04:50:40;;;;;;;24.70;8.53;;;;;;;8.22;55.48;101502.41;4212329;28;25142;-66
2023/05/09 04:53:07;;;;;;;22.17;8.57;;;;;;;8.17;55.44;101507.22;4198724;28;20233;-64
2023/05/09 04:55:34;;;;;;;23.50;7.90;;;;;;;8.10;55.48;101493.31;4229094;28;21050;-68
2023/05/09 04:58:01;;;;;;;24.17;8.97;;;;;;;8.22;55.99;101488.91;4232935;28;20881;-62
2023/05/09 05:00:27;;;;;;;18.43;8.60;;;;;;;8.28;55.55;101499.28;4221475;28;21676;-63
2023/05/09 05:02:54;;;;;;;22.37;8.37;;;;;;;8.38;54.86;101497.66;4213233;28;20469;-66
2023/05/09 05:05:20;;;;;;;15.63;8.20;;;;;;;8.46;55.26;101499.81;4207815;28;22136;-65
2023/05/09 05:07:52;;;;;;;17.43;8.23;;;;;;;8.48;54.50;101499.75;4217716;28;20259;-66
2023/05/09 05:10:18;;;;;;;23.50;7.87;;;;;;;8.65;53.79;101499.44;4211814;28;20489;-65
2023/05/09 05:12:45;;;;;;;17.80;8.10;;;;;;;8.69;53.70;101498.22;4208192;28;20247;-66
2023/05/09 05:15:12;;;;;;;19.03;6.90;;;;;;;8.81;52.28;101496.50;4232360;28;20239;-67
2023/05/09 05:17:38;;;;;;;22.73;7.87;;;;;;;8.94;53.10;101499.19;4222727;28;20245;-63
2023/05/09 05:20:07;;;;;;;16.60;6.73;;;;;;;9.09;51.67;101496.34;4218231;28;21075;-64
2023/05/09 05:22:34;;;;;;;14.00;6.47;;;;;;;9.26;50.28;101498.69;4233470;28;20279;-67
2023/05/09 05:25:02;;;;;;;24.33;6.27;;;;;;;9.39;49.63;101489.66;4224736;28;20239;-64
2023/05/09 05:27:29;;;;;;;20.40;7.17;;;;;;;9.48;49.86;101491.69;4202479;28;20232;-65
2023/05/09 05:29:56;;;;;;;15.40;5.90;;;;;;;9.63;48.46;101495.09;4197328;28;20314;-65
2023/05/09 05:32:22;;;;;;;20.10;5.87;;;;;;;9.83;47.57;101501.66;4230824;28;20405;-65
2023/05/09 05:34:49;;;;;;;13.80;5.70;;;;;;;9.92;47.36;101497.44;4220688;28;21476;-64
2023/05/09 05:37:15;;;;;;;11.23;5.53;;;;;;;10.07;46.61;101500.78;4236664;28;20240;-64
2023/05/09 05:39:42;;;;;;;12.87;5.77;;;;;;;10.17;46.23;101490.09;4206450;28;20284;-63
2023/05/09 05:42:08;;;;;;;12.53;5.37;;;;;;;10.49;44.77;101493.06;4216185;28;20250;-67
2023/05/09 05:44:35;;;;;;;13.40;5.57;;;;;;;10.66;44.54;101488.13;4221573;28;20232;-63
2023/05/09 05:47:02;;;;;;;16.73;5.47;;;;;;;10.91;44.06;101487.91;4233242;28;20230;-65
2023/05/09 05:49:28;;;;;;;12.20;5.33;;;;;;;11.85;43.08;101489.28;4222511;28;20235;-65
2023/05/09 05:51:55;;;;;;;20.80;5.47;;;;;;;12.85;39.73;101482.53;4204829;28;20242;-64
2023/05/09 05:54:21;;;;;;;12.93;5.53;;;;;;;14.92;37.37;101487.00;4230273;28;20234;-64
2023/05/09 05:56:48;;;;;;;11.43;4.50;;;;;;;15.16;35.24;101482.88;4243725;28;21274;-64
2023/05/09 05:59:15;;;;;;;10.80;4.60;;;;;;;15.65;34.13;101486.13;4215291;28;20242;-64
2023/05/09 06:01:41;;;;;;;23.97;4.53;;;;;;;16.26;32.96;101488.25;4225349;28;20774;-65
2023/05/09 06:04:08;;;;;;;9.67;3.87;;;;;;;16.91;31.12;101484.19;4246846;28;20651;-64
2023/05/09 06:06:35;;;;;;;9.50;4.00;;;;;;;16.93;30.99;101477.56;4235601;28;20250;-65
2023/05/09 06:09:02;;;;;;;9.27;3.70;;;;;;;17.35;30.66;101469.50;4192047;28;20601;-67
2023/05/09 06:11:28;;;;;;;6.87;3.63;;;;;;;18.62;28.16;101480.19;4216974;28;21844;-65
2023/05/09 06:13:55;;;;;;;13.50;4.40;;;;;;;19.27;27.27;101476.38;4232842;28;20835;-65
2023/05/09 06:16:21;;;;;;;12.17;4.00;;;;;;;18.91;27.52;101485.09;4233839;28;20245;-67
2023/05/09 06:18:48;;;;;;;8.60;4.00;;;;;;;19.04;28.43;101483.69;4232496;28;22580;-64
2023/05/09 06:21:15;;;;;;;9.47;3.60;;;;;;;20.41;25.83;101477.63;4206109;28;20288;-65
2023/05/09 06:23:41;;;;;;;8.53;3.53;;;;;;;21.92;24.43;101479.16;4223105;28;20243;-65
2023/05/09 06:26:28;;;;;;;9.77;3.37;;;;;;;22.02;24.61;101479.66;4256753;28;20245;-66
2023/05/09 06:28:55;;;;;;;8.10;3.60;;;;;;;21.72;24.64;101485.31;4249388;28;20258;-65
2023/05/09 06:31:21;;;;;;;7.97;3.47;;;;;;;21.09;23.21;101473.94;4231556;28;22999;-66
2023/05/09 06:33:51;;;;;;;11.40;3.80;;;;;;;21.45;23.71;101475.88;4226821;28;20328;-65
2023/05/09 06:36:17;;;;;;;7.53;3.80;;;;;;;21.34;23.72;101463.44;4240331;28;21522;-65
2023/05/09 06:38:44;;;;;;;13.23;3.50;;;;;;;22.67;22.56;101481.47;4225939;28;22442;-65
2023/05/09 06:41:10;;;;;;;8.33;3.20;;;;;;;22.15;22.69;101478.91;4232032;28;20398;-66
2023/05/09 06:43:37;;;;;;;8.83;3.40;;;;;;;23.32;22.26;101479.28;4249531;28;20280;-65
2023/05/09 06:46:04;;;;;;;7.33;3.37;;;;;;;24.90;20.08;101477.03;4245506;28;21717;-67
2023/05/09 06:48:30;;;;;;;11.63;4.10;;;;;;;21.84;22.11;101480.13;4220473;28;20287;-64
2023/05/09 06:50:57;;;;;;;5.57;3.20;;;;;;;21.77;22.42;101476.44;4211609;28;20299;-64
2023/05/09 06:53:23;;;;;;;10.70;4.07;;;;;;;20.92;23.03;101474.16;4225306;28;20239;-65
2023/05/09 06:55:50;;;;;;;10.00;4.50;;;;;;;22.68;21.75;101472.13;4206264;28;20699;-66
2023/05/09 06:58:16;;;;;;;8.70;3.63;;;;;;;22.43;22.28;101470.69;4221468;28;20240;-65
2023/05/09 07:00:43;;;;;;;7.17;2.87;;;;;;;22.75;21.96;101467.50;4232557;28;20254;-64
2023/05/09 07:03:10;;;;;;;10.13;3.33;;;;;;;22.70;21.39;101451.53;4219075;28;22403;-63
2023/05/09 07:05:37;;;;;;;8.07;3.10;;;;;;;22.65;22.30;101472.56;4203450;28;20263;-65
2023/05/09 07:08:03;;;;;;;9.30;3.60;;;;;;;24.06;21.39;101465.63;4201764;28;20414;-65
2023/05/09 07:10:30;;;;;;;7.80;3.27;;;;;;;22.98;21.04;101461.69;4215571;28;20244;-64
2023/05/09 07:12:57;;;;;;;7.80;3.10;;;;;;;22.16;22.35;101462.19;4216253;28;23576;-66
2023/05/09 07:15:23;;;;;;;6.97;2.90;;;;;;;22.91;21.72;101466.34;4225451;28;20236;-66
2023/05/09 07:18:07;;;;;;;9.23;3.50;;;;;;;23.69;20.29;101459.63;4229284;28;24948;-66
2023/05/09 07:20:34;;;;;;;8.43;3.10;;;;;;;24.04;20.17;101454.78;4209802;28;20357;-65
2023/05/09 07:23:02;;;;;;;11.73;3.40;;;;;;;22.77;21.43;101457.94;4233812;28;20241;-64
2023/05/09 07:25:29;;;;;;;11.07;2.90;;;;;;;21.63;22.06;101450.69;4250153;28;20278;-64
2023/05/09 07:27:56;;;;;;;11.07;3.20;;;;;;;22.82;20.94;101456.50;4203996;28;20248;-63
2023/05/09 07:30:24;;;;;;;9.80;3.47;;;;;;;22.01;21.59;101447.66;4234981;28;20270;-66
2023/05/09 07:32:50;;;;;;;6.53;2.67;;;;;;;23.45;19.45;101444.47;4235389;28;22353;-65
2023/05/09 07:35:18;;;;;;;10.83;2.10;;;;;;;23.21;19.94;101436.53;4223689;28;21769;-64
2023/05/09 07:37:45;;;;;;;8.83;2.60;;;;;;;23.26;20.82;101444.19;4227221;28;21665;-64
2023/05/09 07:40:12;;;;;;;7.93;2.40;;;;;;;22.56;19.94;101441.47;4244710;28;20248;-64
2023/05/09 07:42:39;;;;;;;6.10;2.30;;;;;;;21.49;20.81;101438.63;4249151;28;20232;-66
2023/05/09 07:45:06;;;;;;;5.37;1.90;;;;;;;20.69;21.28;101442.06;4235646;28;20305;-65
2023/05/09 07:47:33;;;;;;;7.87;2.40;;;;;;;19.82;22.83;101437.91;4225329;28;20677;-64
2023/05/09 07:50:00;;;;;;;3.90;2.07;;;;;;;18.75;23.92;101439.34;4226624;28;20227;-65
2023/05/09 07:52:26;;;;;;;5.97;1.70;;;;;;;18.21;23.50;101434.50;4233068;28;20241;-62
2023/05/09 07:54:53;;;;;;;4.37;2.00;;;;;;;18.36;24.18;101435.53;4236123;28;20240;-65
2023/05/09 07:57:20;;;;;;;3.67;1.93;;;;;;;18.81;24.15;101432.28;4224613;28;22817;-66
2023/05/09 07:59:46;;;;;;;8.10;1.87;;;;;;;18.60;24.13;101431.00;4218319;28;20258;-64
2023/05/09 08:02:13;;;;;;;5.20;1.67;;;;;;;18.98;23.09;101422.13;4222056;28;20259;-64
2023/05/09 08:04:40;;;;;;;4.50;1.60;;;;;;;19.04;23.30;101426.91;4208045;28;20889;-64
2023/05/09 08:07:07;;;;;;;5.43;1.60;;;;;;;18.81;23.18;101421.31;4220258;28;21602;-63
2023/05/09 08:09:34;;;;;;;4.10;1.90;;;;;;;18.27;22.21;101419.25;4227812;28;20278;-66
2023/05/09 08:12:01;;;;;;;4.27;1.60;;;;;;;18.08;22.11;101413.13;4210063;28;20266;-66
2023/05/09 08:14:28;;;;;;;4.30;1.80;;;;;;;18.27;22.96;101414.63;4204398;28;20492;-64
2023/05/09 08:16:55;;;;;;;3.97;1.80;;;;;;;17.94;22.81;101417.38;4216606;28;20300;-64
2023/05/09 08:19:24;;;;;;;3.57;1.47;;;;;;;17.92;22.97;101404.88;4240891;28;20274;-65
2023/05/09 08:21:51;;;;;;;6.20;2.03;;;;;;;17.47;23.47;101401.63;4222820;28;20554;-67
2023/05/09 08:24:19;;;;;;;7.53;1.70;;;;;;;17.40;24.53;101410.53;4203750;28;20235;-66
2023/05/09 08:26:45;;;;;;;7.80;2.00;;;;;;;17.50;24.20;101401.28;4211531;28;22073;-68
2023/05/09 08:29:12;;;;;;;4.90;1.90;;;;;;;17.78;24.14;101400.97;4220710;28;20244;-67
2023/05/09 08:31:38;;;;;;;8.60;1.67;;;;;;;17.86;24.08;101395.47;4199060;28;20233;-67
2023/05/09 08:34:05;;;;;;;5.00;1.93;;;;;;;17.84;23.65;101392.91;4205047;28;20234;-68
2023/05/09 08:36:32;;;;;;;4.23;1.77;;;;;;;17.39;24.41;101397.84;4227488;28;20247;-68
2023/05/09 08:38:59;;;;;;;2.90;1.53;;;;;;;17.60;25.01;101392.91;4207156;28;20233;-67
2023/05/09 08:41:28;;;;;;;5.43;1.73;;;;;;;17.52;24.55;101388.28;4213139;28;20315;-67
2023/05/09 08:43:55;;;;;;;3.67;1.80;;;;;;;17.48;25.15;101393.25;4214717;28;20272;-69
2023/05/09 08:46:33;;;;;;;3.73;1.93;;;;;;;17.32;24.87;101390.47;4220346;28;20249;-68
2023/05/09 08:49:00;;;;;;;4.00;1.73;;;;;;;16.98;25.64;101394.16;4224034;28;25502;-67
2023/05/09 08:51:28;;;;;;;7.77;1.80;;;;;;;17.35;24.49;101373.72;4216694;28;20298;-68
2023/05/09 08:53:55;;;;;;;5.10;2.10;;;;;;;17.26;25.08;101381.03;4210639;28;21736;-67
2023/05/09 08:56:22;;;;;;;3.10;1.63;;;;;;;17.93;23.93;101370.97;4234499;28;20726;-66
2023/05/09 08:58:49;;;;;;;6.90;2.03;;;;;;;18.20;24.24;101369.78;4264424;28;20249;-66
2023/05/09 09:01:16;;;;;;;5.20;2.03;;;;;;;17.95;25.34;101369.81;4209012;28;21850;-67
2023/05/09 09:03:46;;;;;;;4.27;1.73;;;;;;;16.98;26.00;101364.94;4203357;28;21698;-66
2023/05/09 09:06:13;;;;;;;3.60;1.70;;;;;;;17.01;26.05;101370.06;4209865;28;20426;-65
2023/05/09 09:08:40;;;;;;;6.20;1.80;;;;;;;17.65;24.77;101368.63;4212510;28;20244;-64
2023/05/09 09:11:11;;;;;;;5.13;1.73;;;;;;;17.45;24.52;101366.19;4234834;28;21449;-66
2023/05/09 09:13:39;;;;;;;7.87;2.20;;;;;;;17.32;25.56;101363.09;4231589;28;21064;-65
2023/05/09 09:16:15;;;;;;;5.50;2.00;;;;;;;17.27;24.75;101366.34;4227929;28;20251;-65
2023/05/09 09:18:42;;;;;;;3.10;1.63;;;;;;;16.94;25.71;101369.03;4218389;28;20315;-65
2023/05/09 09:21:11;;;;;;;6.90;1.70;;;;;;;16.55;25.97;101367.66;4214276;28;20240;-67
2023/05/09 09:23:42;;;;;;;4.80;1.60;;;;;;;16.77;25.97;101370.81;4216387;28;20229;-65
2023/05/09 09:26:08;;;;;;;4.27;1.97;;;;;;;17.05;25.78;101362.38;4236151;28;20240;-67
2023/05/09 09:28:35;;;;;;;10.90;3.33;;;;;;;17.00;26.83;101359.28;4218805;28;21218;-66
2023/05/09 09:31:20;;;;;;;10.80;1.93;;;;;;;17.09;25.31;101361.00;4209557;28;21178;-66
2023/05/09 09:33:47;;;;;;;3.57;1.43;;;;;;;17.19;24.56;101360.84;4221621;28;20232;-66
2023/05/09 09:36:14;;;;;;;5.30;1.93;;;;;;;16.78;25.24;101357.00;4222459;28;20227;-67
2023/05/09 09:38:45;;;;;;;8.07;1.87;;;;;;;16.56;26.26;101361.16;4208314;28;21959;-65
2023/05/09 09:41:12;;;;;;;4.80;1.60;;;;;;;16.63;25.32;101350.44;4219072;28;21414;-65
2023/05/09 09:43:44;;;;;;;4.60;1.60;;;;;;;16.33;25.82;101349.97;4206807;28;20239;-63
2023/05/09 09:46:12;;;;;;;7.27;1.60;;;;;;;16.59;25.41;101343.56;4215428;28;20295;-66
2023/05/09 09:48:39;;;;;;;7.00;1.70;;;;;;;16.51;25.07;101333.47;4212221;28;20283;-66
2023/05/09 09:51:09;;;;;;;7.57;1.80;;;;;;;16.41;25.44;101322.69;4212291;28;20326;-66
2023/05/09 09:53:40;;;;;;;3.27;1.60;;;;;;;16.41;25.67;101335.47;4204365;28;22912;-67
2023/05/09 09:56:07;;;;;;;7.03;1.83;;;;;;;15.86;26.15;101336.69;4211590;28;21273;-69
2023/05/09 09:58:34;;;;;;;5.30;1.57;;;;;;;15.97;27.45;101341.91;4215067;28;20453;-67
2023/05/09 10:01:15;;;;;;;4.00;1.70;;;;;;;16.19;26.75;101340.50;4208472;28;20225;-69
2023/05/09 10:03:46;;;;;;;4.23;2.00;;;;;;;16.53;27.83;101336.03;4207750;28;20232;-66
2023/05/09 10:06:14;;;;;;;4.23;1.73;;;;;;;16.43;26.64;101330.69;4215540;28;21947;-63
2023/05/09 10:08:46;;;;;;;5.43;2.00;;;;;;;16.28;27.32;101331.31;4212965;28;20242;-66
2023/05/09 10:11:12;;;;;;;5.70;2.13;;;;;;;16.24;26.33;101315.41;4213203;28;21465;-64
2023/05/09 10:13:39;;;;;;;3.90;1.60;;;;;;;16.45;26.73;101315.84;4211499;28;23378;-65
2023/05/09 10:16:08;;;;;;;4.73;1.73;;;;;;;16.54;26.70;101314.00;4216836;28;20301;-65
2023/05/09 10:18:35;;;;;;;4.27;1.97;;;;;;;15.94;28.07;101321.22;4203039;28;20237;-62
2023/05/09 10:21:03;;;;;;;3.53;1.70;;;;;;;15.77;27.36;101312.03;4202626;28;20816;-65
2023/05/09 10:23:32;;;;;;;5.60;1.83;;;;;;;16.21;27.88;101310.25;4211716;28;20239;-63
2023/05/09 10:26:18;;;;;;;2.80;2.10;;;;;;;16.27;27.63;101309.63;4216870;28;20871;-63
2023/05/09 10:28:47;;;;;;;9.00;1.73;;;;;;;16.34;26.79;101301.63;4217638;28;20232;-63
2023/05/09 10:31:27;;;;;;;8.20;1.93;;;;;;;16.22;27.41;101296.47;4201909;28;20244;-65
2023/05/09 10:33:55;;;;;;;2.73;1.60;;;;;;;16.16;26.78;101308.06;4217456;28;20367;-64
2023/05/09 10:36:22;;;;;;;6.57;2.00;;;;;;;16.13;26.80;101313.81;4216318;28;20680;-64
2023/05/09 10:38:52;;;;;;;7.23;1.63;;;;;;;16.49;26.38;101302.72;4224217;28;20987;-62
2023/05/09 10:41:20;;;;;;;5.07;1.60;;;;;;;16.38;26.20;101298.41;4208403;28;20255;-66
2023/05/09 10:43:47;;;;;;;4.33;1.60;;;;;;;16.39;26.94;101299.28;4235272;28;20269;-65
2023/05/09 10:46:14;;;;;;;4.83;1.70;;;;;;;16.24;27.55;101304.50;4220352;28;20283;-64
2023/05/09 10:48:42;;;;;;;3.50;1.60;;;;;;;16.26;26.93;101295.09;4209381;28;20244;-62
2023/05/09 10:51:09;;;;;;;4.27;1.67;;;;;;;16.34;27.17;101294.31;4214361;28;23012;-64
2023/05/09 10:53:48;;;;;;;3.43;1.80;;;;;;;16.51;26.04;101291.59;4222040;28;20247;-63
2023/05/09 10:56:29;;;;;;;4.40;1.80;;;;;;;16.41;26.23;101297.22;4209570;28;22345;-65
2023/05/09 10:58:56;;;;;;;2.87;1.70;;;;;;;16.08;27.13;101288.88;4216426;28;21873;-63
2023/05/09 11:01:37;;;;;;;7.30;1.90;;;;;;;16.18;26.72;101291.50;4219667;28;20234;-68
2023/05/09 11:04:15;;;;;;;6.33;2.47;;;;;;;16.13;27.94;101294.72;4218900;28;21180;-64
2023/05/09 11:06:42;;;;;;;9.97;1.83;;;;;;;16.34;27.06;101283.38;4217300;28;20310;-65
2023/05/09 11:09:26;;;;;;;3.37;1.90;;;;;;;16.54;27.14;101274.88;4214780;28;20244;-67
2023/05/09 11:11:55;;;;;;;7.70;1.90;;;;;;;16.58;27.16;101259.84;4221300;28;20332;-64
2023/05/09 11:14:50;;;;;;;3.80;2.00;;;;;;;16.36;26.79;101264.91;4220959;28;20329;-65
2023/05/09 11:17:19;;;;;;;6.30;1.73;;;;;;;16.36;27.98;101253.13;4219810;28;20434;-64
2023/05/09 11:19:46;;;;;;;5.93;1.80;;;;;;;16.60;26.94;101263.28;4223157;28;20236;-64
2023/05/09 11:22:20;;;;;;;4.93;1.67;;;;;;;16.67;26.66;101250.66;4215319;28;20601;-64
2023/05/09 11:24:48;;;;;;;6.37;1.77;;;;;;;16.76;26.42;101252.38;4219032;28;20240;-67
2023/05/09 11:27:22;;;;;;;7.53;2.00;;;;;;;16.64;26.84;101253.75;4210490;28;20232;-71
2023/05/09 11:29:50;;;;;;;6.63;2.10;;;;;;;16.80;27.07;101247.44;4204391;28;20486;-65